sensor_id;sensor_type;location;lat;lon;timestamp;P1;durP1;ratioP1;P2;durP2;ratioP2
29236;SDS011;16266;50.866;4.398;2023-07-20T00:01:15;747.80;;;698.50;;
29236;SDS011;16266;50.866;4.398;2023-07-20T00:03:41;774.08;;;720.88;;
29236;SDS011;16266;50.866;4.398;2023-07-20T00:06:07;834.45;;;771.38;;
29236;SDS011;16266;50.866;4.398;2023-07-20T00:08:32;926.53;;;852.38;;
29236;SDS011;16266;50.866;4.398;2023-07-20T00:10:58;922.25;;;847.88;;
29236;SDS011;16266;50.866;4.398;2023-07-20T00:13:24;915.30;;;840.78;;
29236;SDS011;16266;50.866;4.398;2023-07-20T00:15:50;919.40;;;845.58;;
29236;SDS011;16266;50.866;4.398;2023-07-20T00:18:16;909.22;;;837.13;;
29236;SDS011;16266;50.866;4.398;2023-07-20T00:20:42;897.40;;;828.13;;
29236;SDS011;16266;50.866;4.398;2023-07-20T00:23:08;902.63;;;833.17;;
29236;SDS011;16266;50.866;4.398;2023-07-20T00:25:34;861.25;;;795.90;;
29236;SDS011;16266;50.866;4.398;2023-07-20T00:28:00;848.63;;;785.92;;
29236;SDS011;16266;50.866;4.398;2023-07-20T00:30:26;812.20;;;753.53;;
29236;SDS011;16266;50.866;4.398;2023-07-20T00:32:52;757.40;;;705.53;;
29236;SDS011;16266;50.866;4.398;2023-07-20T00:35:17;719.00;;;672.85;;
29236;SDS011;16266;50.866;4.398;2023-07-20T00:37:43;703.95;;;660.65;;
29236;SDS011;16266;50.866;4.398;2023-07-20T00:40:09;694.33;;;653.45;;
29236;SDS011;16266;50.866;4.398;2023-07-20T00:42:35;679.33;;;641.03;;
29236;SDS011;16266;50.866;4.398;2023-07-20T00:45:00;667.88;;;630.38;;
29236;SDS011;16266;50.866;4.398;2023-07-20T00:47:26;678.72;;;640.38;;
29236;SDS011;16266;50.866;4.398;2023-07-20T00:49:52;688.40;;;649.63;;
29236;SDS011;16266;50.866;4.398;2023-07-20T00:52:20;698.45;;;658.22;;
29236;SDS011;16266;50.866;4.398;2023-07-20T00:54:47;698.60;;;658.08;;
29236;SDS011;16266;50.866;4.398;2023-07-20T00:57:16;705.10;;;663.25;;
29236;SDS011;16266;50.866;4.398;2023-07-20T00:59:44;733.65;;;687.70;;
29236;SDS011;16266;50.866;4.398;2023-07-20T01:02:09;740.00;;;692.55;;
29236;SDS011;16266;50.866;4.398;2023-07-20T01:04:35;762.58;;;711.28;;
29236;SDS011;16266;50.866;4.398;2023-07-20T01:09:53;756.80;;;705.55;;
29236;SDS011;16266;50.866;4.398;2023-07-20T01:12:43;767.08;;;714.75;;
29236;SDS011;16266;50.866;4.398;2023-07-20T01:15:17;748.73;;;698.53;;
29236;SDS011;16266;50.866;4.398;2023-07-20T01:17:43;738.13;;;688.47;;
29236;SDS011;16266;50.866;4.398;2023-07-20T01:20:10;745.28;;;696.47;;
29236;SDS011;16266;50.866;4.398;2023-07-20T01:33:36;755.90;;;703.72;;
29236;SDS011;16266;50.866;4.398;2023-07-20T01:36:04;727.30;;;678.22;;
29236;SDS011;16266;50.866;4.398;2023-07-20T01:38:33;658.13;;;616.42;;
29236;SDS011;16266;50.866;4.398;2023-07-20T01:40:59;669.85;;;627.35;;
29236;SDS011;16266;50.866;4.398;2023-07-20T01:43:26;717.22;;;669.03;;
29236;SDS011;16266;50.866;4.398;2023-07-20T01:45:52;762.85;;;710.17;;
29236;SDS011;16266;50.866;4.398;2023-07-20T01:48:17;771.00;;;717.38;;
29236;SDS011;16266;50.866;4.398;2023-07-20T01:50:43;769.38;;;715.17;;
29236;SDS011;16266;50.866;4.398;2023-07-20T01:53:09;784.65;;;729.67;;
29236;SDS011;16266;50.866;4.398;2023-07-20T01:55:34;791.45;;;734.92;;
29236;SDS011;16266;50.866;4.398;2023-07-20T01:58:00;794.50;;;738.60;;
29236;SDS011;16266;50.866;4.398;2023-07-20T02:00:27;787.22;;;731.97;;
29236;SDS011;16266;50.866;4.398;2023-07-20T02:02:52;779.13;;;725.40;;
29236;SDS011;16266;50.866;4.398;2023-07-20T02:05:18;762.25;;;711.03;;
29236;SDS011;16266;50.866;4.398;2023-07-20T02:07:43;761.03;;;708.95;;
29236;SDS011;16266;50.866;4.398;2023-07-20T02:10:09;759.40;;;709.33;;
29236;SDS011;16266;50.866;4.398;2023-07-20T02:12:35;753.50;;;703.58;;
29236;SDS011;16266;50.866;4.398;2023-07-20T02:15:01;750.63;;;702.67;;
29236;SDS011;16266;50.866;4.398;2023-07-20T02:17:27;730.28;;;685.10;;
29236;SDS011;16266;50.866;4.398;2023-07-20T02:19:53;729.60;;;685.50;;
29236;SDS011;16266;50.866;4.398;2023-07-20T02:22:20;725.67;;;683.00;;
29236;SDS011;16266;50.866;4.398;2023-07-20T02:24:46;727.25;;;683.13;;
29236;SDS011;16266;50.866;4.398;2023-07-20T02:27:12;745.92;;;699.58;;
29236;SDS011;16266;50.866;4.398;2023-07-20T02:29:37;745.13;;;698.20;;
29236;SDS011;16266;50.866;4.398;2023-07-20T02:32:04;746.15;;;698.95;;
29236;SDS011;16266;50.866;4.398;2023-07-20T02:34:30;763.45;;;714.60;;
29236;SDS011;16266;50.866;4.398;2023-07-20T02:36:55;755.90;;;707.47;;
29236;SDS011;16266;50.866;4.398;2023-07-20T02:39:22;745.75;;;698.85;;
29236;SDS011;16266;50.866;4.398;2023-07-20T02:41:48;755.97;;;709.15;;
29236;SDS011;16266;50.866;4.398;2023-07-20T02:44:14;732.83;;;687.00;;
29236;SDS011;16266;50.866;4.398;2023-07-20T02:46:40;752.47;;;705.50;;
29236;SDS011;16266;50.866;4.398;2023-07-20T02:49:06;750.85;;;704.60;;
29236;SDS011;16266;50.866;4.398;2023-07-20T02:51:32;761.33;;;714.05;;
29236;SDS011;16266;50.866;4.398;2023-07-20T02:53:58;742.72;;;697.22;;
29236;SDS011;16266;50.866;4.398;2023-07-20T02:56:24;770.72;;;722.33;;
29236;SDS011;16266;50.866;4.398;2023-07-20T02:58:49;747.65;;;702.03;;
29236;SDS011;16266;50.866;4.398;2023-07-20T03:01:15;741.70;;;697.03;;
29236;SDS011;16266;50.866;4.398;2023-07-20T03:03:44;752.00;;;706.40;;
29236;SDS011;16266;50.866;4.398;2023-07-20T03:06:14;755.55;;;710.10;;
29236;SDS011;16266;50.866;4.398;2023-07-20T03:08:41;757.75;;;711.63;;
29236;SDS011;16266;50.866;4.398;2023-07-20T03:11:12;746.95;;;701.90;;
29236;SDS011;16266;50.866;4.398;2023-07-20T03:13:40;753.22;;;707.75;;
29236;SDS011;16266;50.866;4.398;2023-07-20T03:16:07;768.80;;;720.20;;
29236;SDS011;16266;50.866;4.398;2023-07-20T03:18:36;764.95;;;716.40;;
29236;SDS011;16266;50.866;4.398;2023-07-20T03:21:02;773.08;;;724.22;;
29236;SDS011;16266;50.866;4.398;2023-07-20T03:23:28;765.10;;;716.40;;
29236;SDS011;16266;50.866;4.398;2023-07-20T03:25:54;782.90;;;733.15;;
29236;SDS011;16266;50.866;4.398;2023-07-20T03:28:20;783.22;;;733.75;;
29236;SDS011;16266;50.866;4.398;2023-07-20T03:30:45;785.85;;;734.85;;
29236;SDS011;16266;50.866;4.398;2023-07-20T03:33:11;784.83;;;733.85;;
29236;SDS011;16266;50.866;4.398;2023-07-20T03:35:37;804.15;;;751.58;;
29236;SDS011;16266;50.866;4.398;2023-07-20T03:38:02;808.83;;;755.22;;
29236;SDS011;16266;50.866;4.398;2023-07-20T03:40:29;827.05;;;771.70;;
29236;SDS011;16266;50.866;4.398;2023-07-20T03:42:55;824.92;;;769.08;;
29236;SDS011;16266;50.866;4.398;2023-07-20T03:45:20;835.08;;;778.33;;
29236;SDS011;16266;50.866;4.398;2023-07-20T03:47:49;846.30;;;788.65;;
29236;SDS011;16266;50.866;4.398;2023-07-20T03:50:14;838.33;;;779.78;;
29236;SDS011;16266;50.866;4.398;2023-07-20T03:52:40;876.03;;;814.53;;
29236;SDS011;16266;50.866;4.398;2023-07-20T03:55:06;866.15;;;805.50;;
29236;SDS011;16266;50.866;4.398;2023-07-20T03:57:32;863.70;;;802.97;;
29236;SDS011;16266;50.866;4.398;2023-07-20T03:59:58;854.88;;;794.88;;
29236;SDS011;16266;50.866;4.398;2023-07-20T04:02:24;870.70;;;808.92;;
29236;SDS011;16266;50.866;4.398;2023-07-20T04:04:50;857.28;;;796.13;;
29236;SDS011;16266;50.866;4.398;2023-07-20T04:07:15;868.10;;;804.85;;
29236;SDS011;16266;50.866;4.398;2023-07-20T04:09:41;882.10;;;818.58;;
29236;SDS011;16266;50.866;4.398;2023-07-20T04:12:07;885.80;;;821.83;;
29236;SDS011;16266;50.866;4.398;2023-07-20T04:14:32;870.60;;;808.58;;
29236;SDS011;16266;50.866;4.398;2023-07-20T04:16:58;852.72;;;792.03;;
29236;SDS011;16266;50.866;4.398;2023-07-20T04:19:25;867.50;;;805.33;;
29236;SDS011;16266;50.866;4.398;2023-07-20T04:21:51;863.20;;;802.40;;
29236;SDS011;16266;50.866;4.398;2023-07-20T04:24:16;840.95;;;782.90;;
29236;SDS011;16266;50.866;4.398;2023-07-20T04:26:42;829.95;;;772.10;;
29236;SDS011;16266;50.866;4.398;2023-07-20T04:29:08;846.97;;;787.90;;
29236;SDS011;16266;50.866;4.398;2023-07-20T04:31:34;846.40;;;786.55;;
29236;SDS011;16266;50.866;4.398;2023-07-20T04:34:01;851.50;;;791.30;;
29236;SDS011;16266;50.866;4.398;2023-07-20T04:36:27;853.08;;;792.90;;
29236;SDS011;16266;50.866;4.398;2023-07-20T04:38:54;830.72;;;773.53;;
29236;SDS011;16266;50.866;4.398;2023-07-20T04:41:20;799.65;;;746.47;;
29236;SDS011;16266;50.866;4.398;2023-07-20T04:43:45;792.33;;;740.40;;
29236;SDS011;16266;50.866;4.398;2023-07-20T04:46:12;804.15;;;750.40;;
29236;SDS011;16266;50.866;4.398;2023-07-20T04:48:37;739.78;;;694.80;;
29236;SDS011;16266;50.866;4.398;2023-07-20T04:51:03;740.25;;;695.15;;
29236;SDS011;16266;50.866;4.398;2023-07-20T04:53:29;782.45;;;733.17;;
29236;SDS011;16266;50.866;4.398;2023-07-20T04:55:56;720.65;;;678.08;;
29236;SDS011;16266;50.866;4.398;2023-07-20T04:58:21;730.42;;;686.75;;
29236;SDS011;16266;50.866;4.398;2023-07-20T05:00:48;787.83;;;737.10;;
29236;SDS011;16266;50.866;4.398;2023-07-20T05:03:14;736.53;;;691.42;;
29236;SDS011;16266;50.866;4.398;2023-07-20T05:05:40;725.78;;;681.08;;
29236;SDS011;16266;50.866;4.398;2023-07-20T05:08:06;834.65;;;776.35;;
29236;SDS011;16266;50.866;4.398;2023-07-20T05:10:31;715.15;;;669.13;;
29236;SDS011;16266;50.866;4.398;2023-07-20T05:13:00;754.72;;;705.30;;
29236;SDS011;16266;50.866;4.398;2023-07-20T05:15:25;713.60;;;667.95;;
29236;SDS011;16266;50.866;4.398;2023-07-20T05:17:51;734.88;;;684.30;;
29236;SDS011;16266;50.866;4.398;2023-07-20T05:20:17;802.53;;;746.10;;
29236;SDS011;16266;50.866;4.398;2023-07-20T05:22:42;736.17;;;687.30;;
29236;SDS011;16266;50.866;4.398;2023-07-20T05:25:08;673.97;;;632.28;;
29236;SDS011;16266;50.866;4.398;2023-07-20T05:27:38;686.33;;;645.92;;
29236;SDS011;16266;50.866;4.398;2023-07-20T05:30:04;753.87;;;706.60;;
29236;SDS011;16266;50.866;4.398;2023-07-20T05:32:31;622.03;;;586.55;;
29236;SDS011;16266;50.866;4.398;2023-07-20T05:34:57;451.95;;;431.20;;
29236;SDS011;16266;50.866;4.398;2023-07-20T05:37:22;489.50;;;466.38;;
29236;SDS011;16266;50.866;4.398;2023-07-20T05:39:48;360.55;;;345.40;;
29236;SDS011;16266;50.866;4.398;2023-07-20T05:42:14;356.15;;;341.00;;
29236;SDS011;16266;50.866;4.398;2023-07-20T05:44:39;341.58;;;326.63;;
29236;SDS011;16266;50.866;4.398;2023-07-20T05:47:06;362.20;;;345.63;;
29236;SDS011;16266;50.866;4.398;2023-07-20T05:49:31;325.80;;;311.33;;
29236;SDS011;16266;50.866;4.398;2023-07-20T05:51:57;297.10;;;284.83;;
29236;SDS011;16266;50.866;4.398;2023-07-20T05:54:24;297.00;;;283.77;;
29236;SDS011;16266;50.866;4.398;2023-07-20T05:56:50;296.42;;;284.05;;
29236;SDS011;16266;50.866;4.398;2023-07-20T05:59:17;280.75;;;269.13;;
29236;SDS011;16266;50.866;4.398;2023-07-20T06:01:44;312.00;;;298.70;;
29236;SDS011;16266;50.866;4.398;2023-07-20T06:04:10;307.42;;;293.70;;
29236;SDS011;16266;50.866;4.398;2023-07-20T06:06:36;316.15;;;302.10;;
29236;SDS011;16266;50.866;4.398;2023-07-20T06:09:02;318.67;;;304.42;;
29236;SDS011;16266;50.866;4.398;2023-07-20T06:11:36;343.00;;;326.98;;
29236;SDS011;16266;50.866;4.398;2023-07-20T06:14:03;389.88;;;371.73;;
29236;SDS011;16266;50.866;4.398;2023-07-20T06:16:28;337.45;;;322.65;;
29236;SDS011;16266;50.866;4.398;2023-07-20T06:18:54;295.85;;;283.67;;
29236;SDS011;16266;50.866;4.398;2023-07-20T06:21:20;300.60;;;288.40;;
29236;SDS011;16266;50.866;4.398;2023-07-20T06:23:45;428.75;;;408.20;;
29236;SDS011;16266;50.866;4.398;2023-07-20T06:26:11;455.40;;;431.95;;
29236;SDS011;16266;50.866;4.398;2023-07-20T06:28:37;529.13;;;499.17;;
29236;SDS011;16266;50.866;4.398;2023-07-20T06:31:03;544.03;;;513.65;;
29236;SDS011;16266;50.866;4.398;2023-07-20T06:33:29;568.05;;;535.60;;
29236;SDS011;16266;50.866;4.398;2023-07-20T06:35:54;645.33;;;607.78;;
29236;SDS011;16266;50.866;4.398;2023-07-20T06:38:22;669.95;;;627.70;;
29236;SDS011;16266;50.866;4.398;2023-07-20T06:40:51;654.65;;;614.35;;
29236;SDS011;16266;50.866;4.398;2023-07-20T06:43:17;627.25;;;588.22;;
29236;SDS011;16266;50.866;4.398;2023-07-20T06:45:43;635.85;;;596.30;;
29236;SDS011;16266;50.866;4.398;2023-07-20T06:48:09;649.38;;;607.92;;
29236;SDS011;16266;50.866;4.398;2023-07-20T06:50:34;563.22;;;530.92;;
29236;SDS011;16266;50.866;4.398;2023-07-20T06:53:00;429.88;;;410.40;;
29236;SDS011;16266;50.866;4.398;2023-07-20T06:55:29;469.65;;;447.63;;
29236;SDS011;16266;50.866;4.398;2023-07-20T06:57:54;529.15;;;502.30;;
29236;SDS011;16266;50.866;4.398;2023-07-20T07:00:20;464.00;;;440.50;;
29236;SDS011;16266;50.866;4.398;2023-07-20T07:02:46;210.68;;;201.43;;
29236;SDS011;16266;50.866;4.398;2023-07-20T07:05:11;566.17;;;540.03;;
29236;SDS011;16266;50.866;4.398;2023-07-20T07:07:39;345.45;;;330.10;;
29236;SDS011;16266;50.866;4.398;2023-07-20T07:10:05;414.45;;;394.08;;
29236;SDS011;16266;50.866;4.398;2023-07-20T07:12:31;493.33;;;470.83;;
29236;SDS011;16266;50.866;4.398;2023-07-20T07:14:57;530.20;;;505.63;;
29236;SDS011;16266;50.866;4.398;2023-07-20T07:17:23;211.02;;;202.70;;
29236;SDS011;16266;50.866;4.398;2023-07-20T07:19:49;183.32;;;176.27;;
29236;SDS011;16266;50.866;4.398;2023-07-20T07:22:14;182.85;;;175.10;;
29236;SDS011;16266;50.866;4.398;2023-07-20T07:24:40;180.15;;;173.20;;
29236;SDS011;16266;50.866;4.398;2023-07-20T07:27:08;151.48;;;145.68;;
29236;SDS011;16266;50.866;4.398;2023-07-20T07:29:34;70.07;;;67.45;;
29236;SDS011;16266;50.866;4.398;2023-07-20T07:31:59;49.90;;;48.08;;
29236;SDS011;16266;50.866;4.398;2023-07-20T07:34:26;65.00;;;62.67;;
29236;SDS011;16266;50.866;4.398;2023-07-20T07:36:52;57.28;;;55.25;;
29236;SDS011;16266;50.866;4.398;2023-07-20T07:39:18;28.35;;;27.45;;
29236;SDS011;16266;50.866;4.398;2023-07-20T07:41:44;36.42;;;35.17;;
29236;SDS011;16266;50.866;4.398;2023-07-20T07:44:10;27.00;;;26.00;;
29236;SDS011;16266;50.866;4.398;2023-07-20T07:46:35;28.63;;;27.65;;
29236;SDS011;16266;50.866;4.398;2023-07-20T07:49:01;32.80;;;31.70;;
29236;SDS011;16266;50.866;4.398;2023-07-20T07:51:27;19.58;;;18.95;;
29236;SDS011;16266;50.866;4.398;2023-07-20T07:53:52;45.92;;;44.33;;
29236;SDS011;16266;50.866;4.398;2023-07-20T07:56:19;34.50;;;33.28;;
29236;SDS011;16266;50.866;4.398;2023-07-20T07:58:51;29.92;;;28.92;;
29236;SDS011;16266;50.866;4.398;2023-07-20T08:01:17;24.08;;;23.27;;
29236;SDS011;16266;50.866;4.398;2023-07-20T08:03:44;18.90;;;18.30;;
29236;SDS011;16266;50.866;4.398;2023-07-20T08:06:12;17.00;;;16.50;;
29236;SDS011;16266;50.866;4.398;2023-07-20T08:08:41;16.10;;;15.60;;
29236;SDS011;16266;50.866;4.398;2023-07-20T08:11:07;16.85;;;16.30;;
29236;SDS011;16266;50.866;4.398;2023-07-20T08:13:33;17.13;;;16.63;;
29236;SDS011;16266;50.866;4.398;2023-07-20T08:16:00;16.75;;;16.25;;
29236;SDS011;16266;50.866;4.398;2023-07-20T08:18:29;18.58;;;17.98;;
29236;SDS011;16266;50.866;4.398;2023-07-20T08:20:54;19.30;;;18.70;;
29236;SDS011;16266;50.866;4.398;2023-07-20T08:23:20;19.05;;;18.45;;
29236;SDS011;16266;50.866;4.398;2023-07-20T08:25:46;17.52;;;16.92;;
29236;SDS011;16266;50.866;4.398;2023-07-20T08:28:13;17.05;;;16.45;;
29236;SDS011;16266;50.866;4.398;2023-07-20T08:30:40;15.98;;;15.48;;
29236;SDS011;16266;50.866;4.398;2023-07-20T08:33:07;16.98;;;16.45;;
29236;SDS011;16266;50.866;4.398;2023-07-20T08:35:33;18.65;;;18.05;;
29236;SDS011;16266;50.866;4.398;2023-07-20T08:37:59;17.33;;;16.73;;
29236;SDS011;16266;50.866;4.398;2023-07-20T08:40:24;18.23;;;17.63;;
29236;SDS011;16266;50.866;4.398;2023-07-20T08:42:50;29.13;;;28.20;;
29236;SDS011;16266;50.866;4.398;2023-07-20T08:45:17;25.80;;;24.90;;
29236;SDS011;16266;50.866;4.398;2023-07-20T08:47:43;20.33;;;19.67;;
29236;SDS011;16266;50.866;4.398;2023-07-20T08:50:12;19.27;;;18.58;;
29236;SDS011;16266;50.866;4.398;2023-07-20T08:52:39;16.88;;;16.38;;
29236;SDS011;16266;50.866;4.398;2023-07-20T08:55:05;15.70;;;15.20;;
29236;SDS011;16266;50.866;4.398;2023-07-20T08:57:32;24.17;;;23.38;;
29236;SDS011;16266;50.866;4.398;2023-07-20T08:59:59;20.27;;;19.60;;
29236;SDS011;16266;50.866;4.398;2023-07-20T09:02:35;20.00;;;19.40;;
29236;SDS011;16266;50.866;4.398;2023-07-20T09:05:07;18.25;;;17.65;;
29236;SDS011;16266;50.866;4.398;2023-07-20T09:07:34;23.70;;;22.90;;
29236;SDS011;16266;50.866;4.398;2023-07-20T09:10:00;20.70;;;20.00;;
29236;SDS011;16266;50.866;4.398;2023-07-20T09:12:31;22.40;;;21.70;;
29236;SDS011;16266;50.866;4.398;2023-07-20T09:15:04;24.45;;;23.65;;
29236;SDS011;16266;50.866;4.398;2023-07-20T09:17:31;20.70;;;20.00;;
29236;SDS011;16266;50.866;4.398;2023-07-20T09:19:56;22.70;;;21.90;;
29236;SDS011;16266;50.866;4.398;2023-07-20T09:22:26;19.83;;;19.13;;
29236;SDS011;16266;50.866;4.398;2023-07-20T09:24:55;21.42;;;20.73;;
29236;SDS011;16266;50.866;4.398;2023-07-20T09:27:21;19.42;;;18.83;;
29236;SDS011;16266;50.866;4.398;2023-07-20T09:29:50;22.48;;;21.77;;
29236;SDS011;16266;50.866;4.398;2023-07-20T09:32:20;24.13;;;23.33;;
29236;SDS011;16266;50.866;4.398;2023-07-20T09:34:46;16.05;;;15.55;;
29236;SDS011;16266;50.866;4.398;2023-07-20T09:37:14;15.57;;;15.07;;
29236;SDS011;16266;50.866;4.398;2023-07-20T09:39:46;19.92;;;19.27;;
29236;SDS011;16266;50.866;4.398;2023-07-20T09:42:12;18.92;;;18.33;;
29236;SDS011;16266;50.866;4.398;2023-07-20T09:44:38;17.55;;;16.95;;
29236;SDS011;16266;50.866;4.398;2023-07-20T09:47:04;33.42;;;32.33;;
29236;SDS011;16266;50.866;4.398;2023-07-20T09:49:30;24.15;;;23.35;;
29236;SDS011;16266;50.866;4.398;2023-07-20T09:51:59;19.95;;;19.25;;
29236;SDS011;16266;50.866;4.398;2023-07-20T09:54:27;21.27;;;20.58;;
29236;SDS011;16266;50.866;4.398;2023-07-20T09:56:54;17.02;;;16.42;;
29236;SDS011;16266;50.866;4.398;2023-07-20T09:59:21;34.85;;;33.65;;
29236;SDS011;16266;50.866;4.398;2023-07-20T10:01:47;19.58;;;18.88;;
29236;SDS011;16266;50.866;4.398;2023-07-20T10:04:16;25.58;;;24.38;;
29236;SDS011;16266;50.866;4.398;2023-07-20T10:06:46;15.70;;;15.20;;
29236;SDS011;16266;50.866;4.398;2023-07-20T10:09:15;26.17;;;25.30;;
29236;SDS011;16266;50.866;4.398;2023-07-20T10:11:43;19.92;;;19.33;;
29236;SDS011;16266;50.866;4.398;2023-07-20T10:14:14;20.55;;;19.85;;
29236;SDS011;16266;50.866;4.398;2023-07-20T10:16:52;21.20;;;20.42;;
29236;SDS011;16266;50.866;4.398;2023-07-20T10:19:23;19.65;;;18.85;;
29236;SDS011;16266;50.866;4.398;2023-07-20T10:22:02;16.30;;;15.80;;
29236;SDS011;16266;50.866;4.398;2023-07-20T10:24:32;17.52;;;16.92;;
29236;SDS011;16266;50.866;4.398;2023-07-20T10:27:00;23.75;;;22.85;;
29236;SDS011;16266;50.866;4.398;2023-07-20T10:29:26;25.48;;;24.58;;
29236;SDS011;16266;50.866;4.398;2023-07-20T10:31:53;18.13;;;17.52;;
29236;SDS011;16266;50.866;4.398;2023-07-20T10:34:20;19.80;;;19.10;;
29236;SDS011;16266;50.866;4.398;2023-07-20T10:36:46;16.50;;;15.95;;
29236;SDS011;16266;50.866;4.398;2023-07-20T10:39:32;19.83;;;19.00;;
29236;SDS011;16266;50.866;4.398;2023-07-20T10:42:02;16.90;;;16.30;;
29236;SDS011;16266;50.866;4.398;2023-07-20T10:44:32;18.80;;;18.10;;
29236;SDS011;16266;50.866;4.398;2023-07-20T10:46:58;16.13;;;15.63;;
29236;SDS011;16266;50.866;4.398;2023-07-20T10:49:32;18.83;;;18.23;;
29236;SDS011;16266;50.866;4.398;2023-07-20T10:51:59;18.67;;;18.00;;
29236;SDS011;16266;50.866;4.398;2023-07-20T10:59:50;24.92;;;24.05;;
29236;SDS011;16266;50.866;4.398;2023-07-20T11:02:17;30.27;;;29.17;;
29236;SDS011;16266;50.866;4.398;2023-07-20T11:04:45;58.40;;;56.20;;
29236;SDS011;16266;50.866;4.398;2023-07-20T11:07:20;58.00;;;55.92;;
29236;SDS011;16266;50.866;4.398;2023-07-20T11:10:13;19.52;;;18.90;;
29236;SDS011;16266;50.866;4.398;2023-07-20T11:12:40;18.40;;;17.73;;
29236;SDS011;16266;50.866;4.398;2023-07-20T11:15:06;16.88;;;16.25;;
29236;SDS011;16266;50.866;4.398;2023-07-20T11:17:32;28.05;;;27.05;;
29236;SDS011;16266;50.866;4.398;2023-07-20T11:19:58;29.52;;;28.52;;
29236;SDS011;16266;50.866;4.398;2023-07-20T11:22:30;30.92;;;29.83;;
29236;SDS011;16266;50.866;4.398;2023-07-20T11:24:56;28.60;;;27.55;;
29236;SDS011;16266;50.866;4.398;2023-07-20T11:27:23;24.40;;;23.60;;
29236;SDS011;16266;50.866;4.398;2023-07-20T11:29:49;26.13;;;25.25;;
29236;SDS011;16266;50.866;4.398;2023-07-20T11:32:22;21.15;;;20.35;;
29236;SDS011;16266;50.866;4.398;2023-07-20T11:34:48;16.75;;;16.20;;
29236;SDS011;16266;50.866;4.398;2023-07-20T11:37:15;18.67;;;18.08;;
29236;SDS011;16266;50.866;4.398;2023-07-20T11:39:41;17.70;;;17.10;;
29236;SDS011;16266;50.866;4.398;2023-07-20T11:42:07;20.15;;;19.45;;
29236;SDS011;16266;50.866;4.398;2023-07-20T11:44:33;19.48;;;18.77;;
29236;SDS011;16266;50.866;4.398;2023-07-20T11:47:07;26.38;;;25.48;;
29236;SDS011;16266;50.866;4.398;2023-07-20T11:49:35;28.73;;;27.70;;
29236;SDS011;16266;50.866;4.398;2023-07-20T11:52:02;20.63;;;19.92;;
29236;SDS011;16266;50.866;4.398;2023-07-20T11:54:29;17.00;;;16.50;;
29236;SDS011;16266;50.866;4.398;2023-07-20T11:56:55;22.42;;;21.67;;
29236;SDS011;16266;50.866;4.398;2023-07-20T11:59:21;22.50;;;21.73;;
29236;SDS011;16266;50.866;4.398;2023-07-20T12:01:47;23.48;;;22.67;;
29236;SDS011;16266;50.866;4.398;2023-07-20T12:04:13;25.30;;;24.40;;
29236;SDS011;16266;50.866;4.398;2023-07-20T12:06:39;22.70;;;21.92;;
29236;SDS011;16266;50.866;4.398;2023-07-20T12:09:05;20.25;;;19.55;;
29236;SDS011;16266;50.866;4.398;2023-07-20T12:11:34;21.42;;;20.55;;
29236;SDS011;16266;50.866;4.398;2023-07-20T12:14:02;19.73;;;18.92;;
29236;SDS011;16266;50.866;4.398;2023-07-20T12:16:37;18.90;;;18.20;;
29236;SDS011;16266;50.866;4.398;2023-07-20T12:19:06;17.90;;;17.30;;
29236;SDS011;16266;50.866;4.398;2023-07-20T12:21:34;19.20;;;18.40;;
29236;SDS011;16266;50.866;4.398;2023-07-20T12:24:05;19.42;;;18.55;;
29236;SDS011;16266;50.866;4.398;2023-07-20T12:26:31;19.63;;;18.92;;
29236;SDS011;16266;50.866;4.398;2023-07-20T12:28:58;19.17;;;18.48;;
29236;SDS011;16266;50.866;4.398;2023-07-20T12:31:24;19.17;;;18.35;;
29236;SDS011;16266;50.866;4.398;2023-07-20T12:33:51;17.00;;;16.40;;
29236;SDS011;16266;50.866;4.398;2023-07-20T12:38:46;19.48;;;18.75;;
29236;SDS011;16266;50.866;4.398;2023-07-20T12:41:12;16.02;;;15.43;;
29236;SDS011;16266;50.866;4.398;2023-07-20T12:46:07;17.63;;;16.95;;
29236;SDS011;16266;50.866;4.398;2023-07-20T12:48:33;19.85;;;19.15;;
29236;SDS011;16266;50.866;4.398;2023-07-20T12:51:00;18.50;;;17.90;;
29236;SDS011;16266;50.866;4.398;2023-07-20T12:53:25;18.50;;;17.80;;
29236;SDS011;16266;50.866;4.398;2023-07-20T12:55:51;17.20;;;16.63;;
29236;SDS011;16266;50.866;4.398;2023-07-20T12:58:16;20.25;;;19.45;;
29236;SDS011;16266;50.866;4.398;2023-07-20T13:00:43;21.95;;;21.15;;
29236;SDS011;16266;50.866;4.398;2023-07-20T13:03:08;16.05;;;15.55;;
29236;SDS011;16266;50.866;4.398;2023-07-20T13:05:36;16.17;;;15.68;;
29236;SDS011;16266;50.866;4.398;2023-07-20T13:08:02;17.45;;;16.80;;
29236;SDS011;16266;50.866;4.398;2023-07-20T13:10:27;18.15;;;17.45;;
29236;SDS011;16266;50.866;4.398;2023-07-20T13:12:54;16.88;;;16.27;;
29236;SDS011;16266;50.866;4.398;2023-07-20T13:15:19;14.90;;;14.40;;
29236;SDS011;16266;50.866;4.398;2023-07-20T13:17:45;19.35;;;18.65;;
29236;SDS011;16266;50.866;4.398;2023-07-20T13:20:11;20.13;;;19.35;;
29236;SDS011;16266;50.866;4.398;2023-07-20T13:22:37;20.02;;;19.27;;
29236;SDS011;16266;50.866;4.398;2023-07-20T13:25:03;22.40;;;21.55;;
29236;SDS011;16266;50.866;4.398;2023-07-20T13:27:29;79.70;;;76.72;;
29236;SDS011;16266;50.866;4.398;2023-07-20T13:29:58;62.38;;;59.90;;
29236;SDS011;16266;50.866;4.398;2023-07-20T13:32:25;43.85;;;42.25;;
29236;SDS011;16266;50.866;4.398;2023-07-20T13:34:51;48.05;;;46.22;;
29236;SDS011;16266;50.866;4.398;2023-07-20T13:37:19;143.00;;;137.48;;
29236;SDS011;16266;50.866;4.398;2023-07-20T13:39:44;379.50;;;360.10;;
29236;SDS011;16266;50.866;4.398;2023-07-20T13:42:10;265.23;;;254.27;;
29236;SDS011;16266;50.866;4.398;2023-07-20T13:44:37;230.77;;;221.43;;
29236;SDS011;16266;50.866;4.398;2023-07-20T13:47:03;399.73;;;378.98;;
29236;SDS011;16266;50.866;4.398;2023-07-20T13:49:32;344.02;;;326.98;;
29236;SDS011;16266;50.866;4.398;2023-07-20T13:51:58;553.50;;;521.97;;
29236;SDS011;16266;50.866;4.398;2023-07-20T13:54:24;373.35;;;355.48;;
29236;SDS011;16266;50.866;4.398;2023-07-20T13:56:50;546.70;;;515.13;;
29236;SDS011;16266;50.866;4.398;2023-07-20T13:59:16;455.98;;;435.13;;
29236;SDS011;16266;50.866;4.398;2023-07-20T14:01:45;457.70;;;437.10;;
29236;SDS011;16266;50.866;4.398;2023-07-20T14:04:11;340.58;;;326.48;;
29236;SDS011;16266;50.866;4.398;2023-07-20T14:06:37;391.83;;;374.42;;
29236;SDS011;16266;50.866;4.398;2023-07-20T14:09:02;263.45;;;252.93;;
29236;SDS011;16266;50.866;4.398;2023-07-20T14:11:28;257.15;;;246.95;;
29236;SDS011;16266;50.866;4.398;2023-07-20T14:13:54;194.10;;;186.57;;
29236;SDS011;16266;50.866;4.398;2023-07-20T14:16:20;192.95;;;185.48;;
29236;SDS011;16266;50.866;4.398;2023-07-20T14:18:46;87.55;;;84.30;;
29236;SDS011;16266;50.866;4.398;2023-07-20T14:21:13;66.32;;;63.85;;
29236;SDS011;16266;50.866;4.398;2023-07-20T14:23:46;33.25;;;32.08;;
29236;SDS011;16266;50.866;4.398;2023-07-20T14:26:13;37.45;;;36.15;;
29236;SDS011;16266;50.866;4.398;2023-07-20T14:28:39;35.88;;;34.67;;